createdAt,value
2018-06-23T00:01:53.047Z,12.80
2018-06-23T00:04:21.401Z,12.80
2018-06-23T00:06:49.817Z,12.90
2018-06-23T00:09:18.199Z,12.80
2018-06-23T00:11:46.912Z,12.80
2018-06-23T00:14:17.005Z,12.80
2018-06-23T00:16:46.574Z,12.80
2018-06-23T00:19:14.907Z,12.70
2018-06-23T00:24:11.287Z,12.70
2018-06-23T00:29:08.152Z,12.60
2018-06-23T00:31:36.482Z,12.60
2018-06-23T00:34:04.904Z,12.60
2018-06-23T00:36:33.292Z,12.60
2018-06-23T00:39:01.786Z,12.60
2018-06-23T00:41:30.216Z,12.50
2018-06-23T00:43:58.474Z,12.50
2018-06-23T00:46:26.826Z,12.50
2018-06-23T00:48:55.329Z,12.40
2018-06-23T00:51:23.833Z,12.40
2018-06-23T00:53:52.375Z,12.40
2018-06-23T00:56:20.741Z,12.30
2018-06-23T01:01:22.897Z,12.30
2018-06-23T01:03:51.404Z,12.30
2018-06-23T01:06:19.782Z,12.30
2018-06-23T01:08:48.205Z,12.30
2018-06-23T01:11:16.755Z,12.20
2018-06-23T01:13:45.200Z,12.20
2018-06-23T01:16:13.883Z,12.20
2018-06-23T01:18:42.286Z,12.10
2018-06-23T01:21:10.752Z,12.10
2018-06-23T01:23:39.254Z,12.10
2018-06-23T01:26:07.909Z,12.10
2018-06-23T01:28:36.493Z,12.10
2018-06-23T01:31:04.835Z,12.10
2018-06-23T01:33:33.280Z,12.00
2018-06-23T01:36:01.637Z,12.00
2018-06-23T01:38:29.983Z,11.90
2018-06-23T01:40:58.393Z,12.00
2018-06-23T01:43:26.776Z,12.00
2018-06-23T01:45:55.266Z,11.90
2018-06-23T01:48:23.646Z,11.90
2018-06-23T01:50:52.418Z,11.90
2018-06-23T01:53:20.830Z,11.90
2018-06-23T01:58:17.362Z,11.90
2018-06-23T02:00:45.847Z,11.90
2018-06-23T02:03:14.227Z,11.80
2018-06-23T02:05:42.547Z,11.90
2018-06-23T02:08:10.967Z,11.80
2018-06-23T02:10:39.329Z,11.80
2018-06-23T02:13:07.679Z,11.80
2018-06-23T02:15:41.556Z,11.70
2018-06-23T02:18:15.236Z,11.70
2018-06-23T02:20:49.079Z,11.70
2018-06-23T02:23:23.026Z,11.60
2018-06-23T02:25:56.722Z,11.70
2018-06-23T02:28:30.336Z,11.60
2018-06-23T02:31:04.100Z,11.60
2018-06-23T02:36:06.470Z,11.50
2018-06-23T02:38:34.787Z,11.50
2018-06-23T02:41:03.367Z,11.50
2018-06-23T02:43:31.891Z,11.50
2018-06-23T02:46:00.294Z,11.50
2018-06-23T02:48:28.681Z,11.50
2018-06-23T02:50:57.784Z,11.50
2018-06-23T02:53:26.539Z,11.50
2018-06-23T02:58:23.319Z,11.40
2018-06-23T03:00:51.918Z,11.40
2018-06-23T03:03:20.245Z,11.40
2018-06-23T03:05:48.681Z,11.40
2018-06-23T03:08:17.083Z,11.40
2018-06-23T03:10:45.547Z,11.30
2018-06-23T03:13:13.868Z,11.40
2018-06-23T03:15:42.137Z,11.40
2018-06-23T03:18:10.675Z,11.40
2018-06-23T03:20:39.179Z,11.40
2018-06-23T03:23:07.532Z,11.40
2018-06-23T03:25:35.908Z,11.40
2018-06-23T03:28:05.783Z,11.40
2018-06-23T03:30:34.172Z,11.40
2018-06-23T03:33:02.816Z,11.50
2018-06-23T03:37:59.302Z,11.50
2018-06-23T03:40:27.893Z,11.40
2018-06-23T03:42:56.539Z,11.40
2018-06-23T03:47:53.000Z,11.40
2018-06-23T03:50:21.681Z,11.40
2018-06-23T03:52:50.218Z,11.30
2018-06-23T03:55:18.681Z,11.40
2018-06-23T04:00:15.019Z,11.30
2018-06-23T04:02:43.360Z,11.30
2018-06-23T04:05:11.799Z,11.30
2018-06-23T04:10:08.360Z,11.30
2018-06-23T04:12:36.747Z,11.30
2018-06-23T04:15:05.347Z,11.30
2018-06-23T04:17:33.759Z,11.30
2018-06-23T04:20:02.138Z,11.30
2018-06-23T04:22:30.543Z,11.30
2018-06-23T04:24:58.920Z,11.30
2018-06-23T04:27:27.364Z,11.30
2018-06-23T04:29:55.695Z,11.30
2018-06-23T04:32:24.010Z,11.30
2018-06-23T04:37:20.526Z,11.40
2018-06-23T04:39:48.902Z,11.40
2018-06-23T04:42:17.291Z,11.40
2018-06-23T04:44:45.794Z,11.40
2018-06-23T04:47:14.079Z,11.50
2018-06-23T04:49:42.439Z,11.60
2018-06-23T04:52:10.820Z,11.60
2018-06-23T04:54:39.216Z,11.80
2018-06-23T04:57:07.695Z,11.80
2018-06-23T04:59:36.092Z,11.90
2018-06-23T05:02:04.521Z,12.00
2018-06-23T05:04:32.850Z,12.00
2018-06-23T05:07:01.436Z,12.10
2018-06-23T05:09:29.927Z,12.00
2018-06-23T05:11:58.451Z,12.00
2018-06-23T05:14:26.961Z,12.20
2018-06-23T05:16:55.315Z,12.20
2018-06-23T05:19:23.770Z,12.20
2018-06-23T05:21:52.209Z,12.20
2018-06-23T05:24:20.752Z,12.20
2018-06-23T05:26:49.821Z,12.20
2018-06-23T05:29:18.098Z,12.30
2018-06-23T05:31:46.496Z,12.20
2018-06-23T05:34:14.714Z,12.30
2018-06-23T05:36:43.145Z,12.30
2018-06-23T05:39:11.746Z,12.40
2018-06-23T05:41:40.269Z,12.30
2018-06-23T05:44:08.735Z,12.30
2018-06-23T05:46:37.138Z,12.30
2018-06-23T05:49:05.674Z,12.30
2018-06-23T05:51:34.150Z,12.50
2018-06-23T05:54:02.535Z,12.70
2018-06-23T05:56:30.960Z,12.80
2018-06-23T05:58:59.532Z,12.80
2018-06-23T06:01:27.864Z,12.80
2018-06-23T06:03:56.301Z,12.70
2018-06-23T06:06:24.702Z,12.70
2018-06-23T06:08:53.023Z,12.80
2018-06-23T06:11:21.326Z,13.00
2018-06-23T06:13:49.705Z,13.00
2018-06-23T06:16:18.928Z,12.90
2018-06-23T06:18:47.298Z,13.00
2018-06-23T06:21:15.729Z,13.00
2018-06-23T06:23:44.287Z,13.10
2018-06-23T06:26:12.558Z,13.20
2018-06-23T06:28:41.223Z,13.40
2018-06-23T06:31:09.544Z,13.40
2018-06-23T06:33:37.917Z,13.30
2018-06-23T06:36:06.307Z,13.60
2018-06-23T06:38:34.659Z,13.70
2018-06-23T06:41:02.973Z,13.70
2018-06-23T06:43:31.439Z,13.70
2018-06-23T06:45:59.770Z,13.60
2018-06-23T06:48:28.221Z,13.60
2018-06-23T06:50:56.546Z,13.80
2018-06-23T06:53:24.801Z,13.80
2018-06-23T06:55:53.306Z,13.90
2018-06-23T06:58:21.765Z,13.80
2018-06-23T07:00:50.236Z,13.80
2018-06-23T07:03:18.878Z,13.80
2018-06-23T07:05:47.305Z,13.80
2018-06-23T07:08:15.670Z,13.80
2018-06-23T07:10:44.219Z,13.90
2018-06-23T07:13:12.849Z,13.80
2018-06-23T07:15:41.236Z,13.80
2018-06-23T07:18:09.971Z,14.00
2018-06-23T07:20:38.851Z,14.00
2018-06-23T07:23:07.285Z,14.10
2018-06-23T07:25:35.666Z,14.10
2018-06-23T07:28:04.027Z,14.20
2018-06-23T07:30:32.377Z,14.30
2018-06-23T07:33:01.987Z,14.30
2018-06-23T07:35:30.344Z,14.30
2018-06-23T07:37:58.874Z,14.30
2018-06-23T07:40:27.324Z,14.30
2018-06-23T07:42:55.696Z,14.20
2018-06-23T07:45:24.207Z,14.20
2018-06-23T07:50:20.907Z,14.50
2018-06-23T07:52:49.423Z,14.70
2018-06-23T07:55:18.038Z,14.60
2018-06-23T07:57:46.386Z,14.60
2018-06-23T08:00:14.872Z,14.70
2018-06-23T08:02:43.289Z,15.00
2018-06-23T08:05:11.811Z,15.00
2018-06-23T08:07:40.449Z,15.00
2018-06-23T08:10:08.924Z,14.90
2018-06-23T08:12:37.248Z,15.00
2018-06-23T08:15:06.225Z,15.10
2018-06-23T08:17:34.538Z,15.20
2018-06-23T08:20:03.066Z,15.30
2018-06-23T08:22:31.477Z,15.20
2018-06-23T08:24:59.816Z,15.30
2018-06-23T08:27:28.182Z,15.30
2018-06-23T08:29:56.644Z,15.40
2018-06-23T08:32:25.330Z,15.50
2018-06-23T08:34:53.698Z,15.50
2018-06-23T08:37:23.630Z,15.90
2018-06-23T08:39:52.456Z,15.90
2018-06-23T08:42:21.070Z,16.10
2018-06-23T08:44:49.800Z,15.90
2018-06-23T08:47:18.304Z,16.00
2018-06-23T08:49:46.614Z,16.10
2018-06-23T08:52:15.162Z,16.40
2018-06-23T08:54:44.568Z,16.40
2018-06-23T08:57:13.003Z,16.50
2018-06-23T08:59:41.693Z,16.50
2018-06-23T09:02:10.075Z,16.60
2018-06-23T09:04:38.421Z,16.70
2018-06-23T09:07:10.090Z,16.70
2018-06-23T09:09:38.606Z,16.60
2018-06-23T09:12:07.267Z,16.70
2018-06-23T09:14:35.703Z,16.90
2018-06-23T09:19:32.294Z,16.80
2018-06-23T09:22:00.875Z,16.90
2018-06-23T09:24:29.239Z,17.10
2018-06-23T09:26:57.653Z,17.10
2018-06-23T09:29:26.138Z,17.40
2018-06-23T09:34:22.913Z,17.40
2018-06-23T09:36:51.379Z,17.50
2018-06-23T09:39:19.775Z,17.60
2018-06-23T09:41:48.216Z,17.50
2018-06-23T09:44:16.672Z,17.40
2018-06-23T09:46:45.249Z,17.40
2018-06-23T09:49:13.720Z,17.70
2018-06-23T09:51:42.273Z,18.20
2018-06-23T09:56:39.173Z,18.60
2018-06-23T09:59:07.822Z,18.80
2018-06-23T10:01:36.782Z,18.80
2018-06-23T10:04:05.533Z,18.70
2018-06-23T10:06:33.993Z,18.20
2018-06-23T10:09:02.831Z,18.10
2018-06-23T10:11:31.329Z,18.30
2018-06-23T10:13:59.934Z,18.50
2018-06-23T10:16:28.442Z,18.60
2018-06-23T10:18:57.131Z,18.60
2018-06-23T10:21:25.592Z,17.90
2018-06-23T10:23:54.115Z,17.90
2018-06-23T10:26:22.615Z,17.90
2018-06-23T10:28:51.094Z,18.00
2018-06-23T10:31:19.584Z,17.70
2018-06-23T10:33:48.082Z,17.70
2018-06-23T10:36:16.942Z,17.90
2018-06-23T10:38:45.347Z,18.20
2018-06-23T10:41:13.833Z,17.90
2018-06-23T10:43:42.331Z,17.80
2018-06-23T10:46:11.026Z,17.90
2018-06-23T10:51:07.834Z,17.60
2018-06-23T10:53:36.194Z,17.50
2018-06-23T10:56:04.708Z,17.70
2018-06-23T10:58:33.011Z,17.50
2018-06-23T11:01:01.771Z,17.40
2018-06-23T11:03:30.158Z,17.60
2018-06-23T11:05:58.633Z,17.60
2018-06-23T11:08:26.981Z,17.70
2018-06-23T11:10:55.409Z,17.30
2018-06-23T11:13:24.145Z,17.20
2018-06-23T11:15:52.629Z,17.20
2018-06-23T11:18:21.205Z,17.10
2018-06-23T11:23:17.862Z,17.10
2018-06-23T11:25:46.246Z,17.10
2018-06-23T11:28:15.757Z,17.30
2018-06-23T11:30:44.299Z,17.40
2018-06-23T11:33:12.915Z,17.60
2018-06-23T11:35:41.506Z,17.50
2018-06-23T11:40:38.470Z,17.70
2018-06-23T11:43:06.955Z,17.50
2018-06-23T11:45:35.780Z,17.70
2018-06-23T11:48:04.411Z,17.70
2018-06-23T11:50:32.802Z,17.50
2018-06-23T11:53:01.224Z,17.60
2018-06-23T11:57:57.544Z,17.90
2018-06-23T12:00:29.284Z,17.90
2018-06-23T12:02:57.779Z,18.00
2018-06-23T12:07:54.476Z,17.80
2018-06-23T12:10:23.015Z,17.70
2018-06-23T12:15:20.290Z,17.80
2018-06-23T12:17:48.780Z,18.00
2018-06-23T12:20:17.159Z,18.10
2018-06-23T12:22:45.759Z,18.20
2018-06-23T12:25:14.293Z,18.20
2018-06-23T12:27:42.819Z,18.20
2018-06-23T12:30:11.255Z,18.10
2018-06-23T12:32:39.661Z,18.10
2018-06-23T12:35:08.230Z,18.00
2018-06-23T12:37:36.647Z,18.10
2018-06-23T12:40:05.165Z,17.60
2018-06-23T12:45:01.659Z,17.80
2018-06-23T12:47:30.119Z,17.50
2018-06-23T12:52:26.485Z,17.70
2018-06-23T12:54:55.106Z,17.70
2018-06-23T12:57:23.653Z,17.70
2018-06-23T12:59:52.240Z,17.50
2018-06-23T13:02:20.577Z,17.50
2018-06-23T13:04:49.052Z,17.40
2018-06-23T13:07:17.652Z,17.30
2018-06-23T13:09:46.076Z,17.40
2018-06-23T13:12:14.513Z,17.20
2018-06-23T13:14:43.348Z,17.40
2018-06-23T13:17:11.931Z,17.70
2018-06-23T13:19:40.306Z,17.90
2018-06-23T13:22:08.845Z,17.80
2018-06-23T13:24:37.192Z,18.10
2018-06-23T13:27:05.870Z,18.30
2018-06-23T13:29:40.196Z,18.40
2018-06-23T13:32:08.697Z,18.40
2018-06-23T13:34:37.037Z,19.00
2018-06-23T13:37:05.824Z,19.00
2018-06-23T13:39:34.374Z,19.20
2018-06-23T13:42:02.791Z,18.90
2018-06-23T13:44:31.160Z,19.20
2018-06-23T13:46:59.845Z,19.10
2018-06-23T13:49:28.423Z,19.40
2018-06-23T13:51:57.224Z,19.50
2018-06-23T13:54:29.486Z,19.40
2018-06-23T13:56:58.078Z,19.40
2018-06-23T13:59:26.562Z,19.50
2018-06-23T14:02:02.402Z,19.60
2018-06-23T14:09:27.138Z,19.70
2018-06-23T14:14:23.579Z,18.90
2018-06-23T14:16:52.133Z,19.00
2018-06-23T14:19:20.649Z,18.80
2018-06-23T14:21:49.424Z,18.60
2018-06-23T14:24:17.579Z,18.70
2018-06-23T14:26:51.366Z,18.60
2018-06-23T14:29:20.000Z,18.70
2018-06-23T14:31:48.800Z,18.60
2018-06-23T14:34:17.166Z,18.50
2018-06-23T14:36:45.626Z,18.50
2018-06-23T14:39:14.638Z,18.40
2018-06-23T14:41:43.055Z,18.10
2018-06-23T14:44:11.493Z,18.20
2018-06-23T14:46:39.798Z,18.20
2018-06-23T14:49:08.322Z,18.20
2018-06-23T14:51:36.606Z,18.20
2018-06-23T14:54:05.325Z,18.40
2018-06-23T14:56:33.666Z,18.50
2018-06-23T14:59:02.086Z,18.30
2018-06-23T15:01:30.554Z,18.30
2018-06-23T15:03:59.158Z,18.70
2018-06-23T15:06:27.824Z,19.60
2018-06-23T15:09:07.663Z,19.70
2018-06-23T15:11:47.286Z,20.00
2018-06-23T15:14:15.776Z,20.10
2018-06-23T15:16:44.198Z,19.90
2018-06-23T15:19:12.931Z,19.80
2018-06-23T15:21:41.761Z,19.60
2018-06-23T15:24:10.439Z,20.20
2018-06-23T15:26:39.231Z,20.00
2018-06-23T15:29:07.864Z,19.60
2018-06-23T15:31:36.305Z,19.60
2018-06-23T15:34:05.597Z,19.50
2018-06-23T15:36:34.460Z,19.40
2018-06-23T15:39:03.319Z,19.40
2018-06-23T15:41:32.079Z,19.10
2018-06-23T15:46:29.558Z,19.10
2018-06-23T15:48:58.093Z,19.40
2018-06-23T15:51:26.803Z,19.80
2018-06-23T15:53:55.602Z,19.30
2018-06-23T15:56:24.168Z,19.20
2018-06-23T15:58:52.670Z,19.40
2018-06-23T16:01:21.227Z,20.10
2018-06-23T16:03:49.918Z,20.10
2018-06-23T16:06:18.468Z,19.00
2018-06-23T16:08:47.146Z,19.40
2018-06-23T16:11:15.973Z,20.40
2018-06-23T16:13:45.481Z,19.30
2018-06-23T16:16:14.014Z,19.20
2018-06-23T16:18:42.684Z,20.00
2018-06-23T16:21:11.324Z,19.50
2018-06-23T16:23:39.816Z,19.20
2018-06-23T16:26:08.685Z,19.30
2018-06-23T16:28:39.797Z,21.10
2018-06-23T16:33:36.860Z,21.40
2018-06-23T16:36:05.405Z,21.30
2018-06-23T16:38:34.377Z,20.90
2018-06-23T16:41:03.130Z,20.20
2018-06-23T16:43:31.814Z,20.00
2018-06-23T16:46:00.969Z,20.20
2018-06-23T16:48:29.353Z,21.90
2018-06-23T16:50:57.887Z,22.10
2018-06-23T16:53:26.646Z,22.20
2018-06-23T16:55:55.180Z,21.60
2018-06-23T16:58:23.958Z,22.30
2018-06-23T17:00:52.879Z,21.00
2018-06-23T17:03:21.520Z,20.60
2018-06-23T17:05:50.320Z,20.40
2018-06-23T17:08:18.836Z,20.30
2018-06-23T17:10:47.382Z,19.90
2018-06-23T17:13:17.876Z,19.50
2018-06-23T17:15:46.331Z,19.40
2018-06-23T17:18:15.430Z,19.30
2018-06-23T17:20:43.933Z,19.40
2018-06-23T17:23:13.627Z,21.90
2018-06-23T17:25:42.144Z,21.80
2018-06-23T17:28:10.783Z,21.20
2018-06-23T17:30:39.600Z,20.10
2018-06-23T17:33:08.160Z,20.00
2018-06-23T17:35:36.775Z,22.20
2018-06-23T17:40:33.674Z,20.60
2018-06-23T17:43:02.251Z,20.70
2018-06-23T17:45:30.849Z,21.80
2018-06-23T17:47:59.304Z,22.30
2018-06-23T17:50:28.126Z,22.60
2018-06-23T17:52:56.819Z,22.70
2018-06-23T17:55:25.283Z,22.90
2018-06-23T17:57:54.103Z,23.20
2018-06-23T18:00:22.560Z,23.00
2018-06-23T18:02:51.135Z,22.20
2018-06-23T18:05:20.684Z,22.30
2018-06-23T18:07:49.371Z,21.90
2018-06-23T18:10:18.221Z,21.90
2018-06-23T18:12:47.070Z,21.90
2018-06-23T18:15:15.490Z,21.60
2018-06-23T18:17:44.112Z,21.50
2018-06-23T18:22:40.778Z,22.00
2018-06-23T18:25:09.313Z,22.30
2018-06-23T18:27:37.871Z,22.00
2018-06-23T18:30:06.630Z,22.00
2018-06-23T18:32:35.476Z,21.90
2018-06-23T18:35:04.252Z,21.40
2018-06-23T18:37:32.679Z,20.00
2018-06-23T18:40:01.115Z,20.10
2018-06-23T18:42:29.459Z,19.50
2018-06-23T18:44:58.083Z,19.40
2018-06-23T18:47:26.674Z,19.20
2018-06-23T18:49:55.089Z,19.00
2018-06-23T18:52:23.571Z,18.90
2018-06-23T18:54:51.988Z,18.60
2018-06-23T18:59:49.274Z,18.60
2018-06-23T19:04:46.391Z,18.20
2018-06-23T19:07:14.881Z,17.90
2018-06-23T19:09:44.502Z,17.70
2018-06-23T19:12:12.981Z,17.50
2018-06-23T19:14:41.685Z,17.50
2018-06-23T19:17:10.540Z,17.30
2018-06-23T19:19:38.906Z,17.10
2018-06-23T19:22:07.323Z,17.00
2018-06-23T19:24:35.880Z,16.90
2018-06-23T19:27:04.241Z,16.80
2018-06-23T19:29:32.816Z,16.70
2018-06-23T19:32:01.528Z,16.70
2018-06-23T19:34:30.112Z,16.60
2018-06-23T19:36:58.627Z,16.50
2018-06-23T19:41:55.447Z,16.30
2018-06-23T19:44:24.137Z,16.20
2018-06-23T19:46:52.928Z,14.70
2018-06-23T19:49:21.291Z,16.10
2018-06-23T19:51:49.824Z,16.00
2018-06-23T19:56:47.462Z,16.00
2018-06-23T19:59:15.978Z,15.90
2018-06-23T20:01:44.267Z,15.90
2018-06-23T20:04:12.643Z,15.90
2018-06-23T20:06:41.256Z,15.80
2018-06-23T20:09:10.171Z,15.70
2018-06-23T20:11:38.901Z,15.70
2018-06-23T20:14:07.880Z,15.60
2018-06-23T20:16:36.401Z,15.60
2018-06-23T20:19:05.389Z,15.60
2018-06-23T20:21:33.959Z,15.60
2018-06-23T20:24:02.580Z,15.60
2018-06-23T20:26:31.138Z,15.50
2018-06-23T20:28:59.633Z,15.50
2018-06-23T20:31:28.280Z,15.50
2018-06-23T20:33:57.220Z,15.50
2018-06-23T20:38:53.740Z,15.50
2018-06-23T20:41:22.397Z,15.40
2018-06-23T20:43:51.927Z,15.40
2018-06-23T20:46:20.419Z,15.40
2018-06-23T20:48:48.987Z,15.30
2018-06-23T20:51:17.551Z,15.30
2018-06-23T20:53:45.839Z,15.20
2018-06-23T20:56:14.247Z,15.20
2018-06-23T20:58:42.793Z,15.20
2018-06-23T21:01:11.402Z,15.10
2018-06-23T21:03:39.901Z,15.10
2018-06-23T21:06:08.296Z,15.10
2018-06-23T21:08:36.768Z,15.10
2018-06-23T21:11:05.448Z,15.10
2018-06-23T21:13:34.092Z,15.00
2018-06-23T21:16:02.640Z,15.10
2018-06-23T21:18:31.388Z,15.00
2018-06-23T21:20:59.835Z,15.00
2018-06-23T21:23:28.475Z,15.00
2018-06-23T21:25:57.140Z,15.00
2018-06-23T21:28:28.209Z,15.00
2018-06-23T21:30:58.497Z,15.10
2018-06-23T21:38:49.254Z,15.00
2018-06-23T21:41:17.602Z,14.90
2018-06-23T21:43:45.997Z,14.90
2018-06-23T21:46:14.530Z,14.90
2018-06-23T21:48:43.059Z,14.80
2018-06-23T21:51:15.458Z,14.80
2018-06-23T21:53:43.917Z,14.70
2018-06-23T21:56:12.318Z,14.70
2018-06-23T21:58:40.806Z,14.70
2018-06-23T22:01:17.321Z,14.70
2018-06-23T22:04:02.579Z,14.70
2018-06-23T22:06:30.871Z,13.80
2018-06-23T22:09:13.845Z,14.60
2018-06-23T22:11:42.128Z,14.60
2018-06-23T22:16:38.840Z,14.50
2018-06-23T22:19:07.385Z,14.50
2018-06-23T22:21:35.898Z,14.50
2018-06-23T22:24:04.554Z,14.50
2018-06-23T22:26:33.355Z,14.50
2018-06-23T22:29:01.873Z,14.50
2018-06-23T22:31:30.396Z,14.50
2018-06-23T22:33:58.749Z,14.50
2018-06-23T22:36:27.163Z,14.50
2018-06-23T22:38:55.541Z,14.50
2018-06-23T22:41:23.951Z,14.50
2018-06-23T22:43:52.436Z,14.50
2018-06-23T22:46:21.135Z,14.50
2018-06-23T22:48:49.535Z,14.60
2018-06-23T22:51:18.571Z,14.50
2018-06-23T22:53:47.221Z,14.50
2018-06-23T22:58:43.943Z,14.50
2018-06-23T23:01:12.761Z,14.50
2018-06-23T23:03:41.314Z,14.50
2018-06-23T23:06:09.795Z,14.60
2018-06-23T23:08:38.170Z,14.60
2018-06-23T23:13:35.134Z,14.60
2018-06-23T23:16:04.000Z,14.60
2018-06-23T23:18:32.553Z,14.70
2018-06-23T23:21:01.002Z,14.70
2018-06-23T23:23:29.805Z,14.70
2018-06-23T23:25:58.263Z,14.70
2018-06-23T23:28:26.815Z,14.80
2018-06-23T23:30:55.982Z,14.80
2018-06-23T23:33:24.329Z,14.80
2018-06-23T23:35:52.761Z,14.90
2018-06-23T23:38:21.241Z,14.90
2018-06-23T23:40:49.652Z,14.90
2018-06-23T23:43:17.985Z,14.90
2018-06-23T23:45:46.315Z,14.90
2018-06-23T23:48:15.057Z,14.90
2018-06-23T23:50:43.539Z,14.90
2018-06-23T23:53:13.054Z,14.90
2018-06-23T23:55:41.546Z,14.90
2018-06-23T23:58:10.668Z,14.90
